メインページ
METAR-TAF:

METAR-TAF

空港 :

桂林, 中華人民共和国

桂林両江国際空港

緯度: 25-20N, 経度: 110-18E, 海抜: 166m

現時点の気象観測

当レポートは36分前の09:00(UTC)に作成
南/南東の風 8kt、東/南東からの間で変化する
気温 28°C
湿度 40%
気圧 1011 hPa
視程10km以上
高度6600ftの雲はほとんどない

METAR: ZGKL 290900Z 15004MPS 120V180 9999 FEW066 28/13 Q1011 NOSIG

時間: 17:36 (09:36 UTC)

予報

当レポートは6時間25分前の03:11(UTC)に作成
予報は29日の 06時(UTC)から 30日の 06時(UTC)まで有効
の風 6kt
視程: 8000m

TAF: ZGKL 290311Z 2906/3006 18003MPS 8000 NSC TX28/2908Z TN15/2922Z

4,000以上の空港の気象観測と天気予報(METAR報とTAF報)

利用可能な観測所は地図上に黄色い丸と赤い丸で示す。

丸の上にカーソルを重ねると観測所名を参照できる。

次にクリックすると気象観測と天気予報を参照できる。

マップの切り替え:黒色「×」印の緑ボタンをクリックして拡大、「-」印の緑ボタンをクリックして縮小、緑色の三角印をクリックして隣りの地図に切り替え


METAR-TAF: